sensor_id;sensor_type;location;lat;lon;timestamp;pressure;altitude;pressure_sealevel;temperature;humidity
19150;BME280;9707;49.158;8.632;2024-02-15T00:01:54;100870.16;;;21.02;40.67
19150;BME280;9707;49.158;8.632;2024-02-15T00:04:20;100875.47;;;21.04;40.56
19150;BME280;9707;49.158;8.632;2024-02-15T00:06:45;100871.88;;;21.03;40.54
19150;BME280;9707;49.158;8.632;2024-02-15T00:09:10;100871.03;;;21.03;40.54
19150;BME280;9707;49.158;8.632;2024-02-15T00:11:36;100867.34;;;21.04;40.63
19150;BME280;9707;49.158;8.632;2024-02-15T00:14:01;100876.44;;;21.03;40.32
19150;BME280;9707;49.158;8.632;2024-02-15T00:16:26;100873.75;;;21.03;40.58
19150;BME280;9707;49.158;8.632;2024-02-15T00:18:52;100871.88;;;21.03;40.29
19150;BME280;9707;49.158;8.632;2024-02-15T00:21:20;100864.75;;;21.02;40.32
19150;BME280;9707;49.158;8.632;2024-02-15T00:23:45;100863.91;;;21.02;40.43
19150;BME280;9707;49.158;8.632;2024-02-15T00:26:10;100864.75;;;21.02;40.24
19150;BME280;9707;49.158;8.632;2024-02-15T00:28:37;100862.91;;;21.03;40.43
19150;BME280;9707;49.158;8.632;2024-02-15T00:31:02;100858.47;;;21.02;40.55
19150;BME280;9707;49.158;8.632;2024-02-15T00:33:27;100858.47;;;21.02;40.85
19150;BME280;9707;49.158;8.632;2024-02-15T00:35:53;100861.03;;;21.03;40.49
19150;BME280;9707;49.158;8.632;2024-02-15T00:38:18;100864.75;;;21.02;40.16
19150;BME280;9707;49.158;8.632;2024-02-15T00:40:44;100857.59;;;21.01;40.25
19150;BME280;9707;49.158;8.632;2024-02-15T00:43:10;100856.63;;;21.02;40.26
19150;BME280;9707;49.158;8.632;2024-02-15T00:45:36;100852.06;;;21.03;40.21
19150;BME280;9707;49.158;8.632;2024-02-15T00:48:01;100849.38;;;21.03;40.42
19150;BME280;9707;49.158;8.632;2024-02-15T00:50:26;100851.19;;;21.02;40.02
19150;BME280;9707;49.158;8.632;2024-02-15T00:52:51;100842.22;;;21.02;40.01
19150;BME280;9707;49.158;8.632;2024-02-15T00:55:17;100845.88;;;21.01;40.13
19150;BME280;9707;49.158;8.632;2024-02-15T00:57:42;100845.88;;;21.01;39.99
19150;BME280;9707;49.158;8.632;2024-02-15T01:00:08;100850.47;;;21.00;39.78
19150;BME280;9707;49.158;8.632;2024-02-15T01:02:35;100845.16;;;20.99;39.86
19150;BME280;9707;49.158;8.632;2024-02-15T01:05:01;100842.44;;;20.99;39.95
19150;BME280;9707;49.158;8.632;2024-02-15T01:07:26;100847.84;;;20.99;39.93
19150;BME280;9707;49.158;8.632;2024-02-15T01:09:53;100844.41;;;20.97;39.77
19150;BME280;9707;49.158;8.632;2024-02-15T01:12:18;100854.25;;;20.98;39.98
19150;BME280;9707;49.158;8.632;2024-02-15T01:14:43;100848.94;;;20.96;39.81
19150;BME280;9707;49.158;8.632;2024-02-15T01:17:08;100848.06;;;20.96;40.20
19150;BME280;9707;49.158;8.632;2024-02-15T01:19:34;100851.75;;;20.95;40.08
19150;BME280;9707;49.158;8.632;2024-02-15T01:21:59;100859.78;;;20.96;39.99
19150;BME280;9707;49.158;8.632;2024-02-15T01:24:25;100859.78;;;20.96;39.73
19150;BME280;9707;49.158;8.632;2024-02-15T01:26:50;100852.63;;;20.95;39.85
19150;BME280;9707;49.158;8.632;2024-02-15T01:29:15;100857.06;;;20.96;40.08
19150;BME280;9707;49.158;8.632;2024-02-15T01:31:40;100862.59;;;20.95;39.88
19150;BME280;9707;49.158;8.632;2024-02-15T01:34:06;100852.63;;;20.95;39.69
19150;BME280;9707;49.158;8.632;2024-02-15T01:36:31;100855.34;;;20.95;40.01
19150;BME280;9707;49.158;8.632;2024-02-15T01:38:56;100856.19;;;20.96;39.92
19150;BME280;9707;49.158;8.632;2024-02-15T01:41:21;100849.06;;;20.95;39.68
19150;BME280;9707;49.158;8.632;2024-02-15T01:43:47;100843.75;;;20.93;39.59
19150;BME280;9707;49.158;8.632;2024-02-15T01:46:14;100852.75;;;20.94;39.92
19150;BME280;9707;49.158;8.632;2024-02-15T01:48:40;100850.91;;;20.94;39.86
19150;BME280;9707;49.158;8.632;2024-02-15T01:51:10;100850.91;;;20.94;40.04
19150;BME280;9707;49.158;8.632;2024-02-15T01:53:36;100845.59;;;20.93;39.96
19150;BME280;9707;49.158;8.632;2024-02-15T01:56:03;100850.03;;;20.94;39.83
19150;BME280;9707;49.158;8.632;2024-02-15T01:58:29;100841.91;;;20.94;40.01
19150;BME280;9707;49.158;8.632;2024-02-15T02:00:59;100845.50;;;20.94;39.98
19150;BME280;9707;49.158;8.632;2024-02-15T02:03:25;100843.63;;;20.95;39.87
19150;BME280;9707;49.158;8.632;2024-02-15T02:05:50;100838.22;;;20.95;39.78
19150;BME280;9707;49.158;8.632;2024-02-15T02:08:15;100839.09;;;20.95;39.95
19150;BME280;9707;49.158;8.632;2024-02-15T02:10:41;100834.66;;;20.94;39.46
19150;BME280;9707;49.158;8.632;2024-02-15T02:13:08;100830.19;;;20.93;39.61
19150;BME280;9707;49.158;8.632;2024-02-15T02:15:34;100832.19;;;20.91;39.73
19150;BME280;9707;49.158;8.632;2024-02-15T02:18:00;100829.47;;;20.91;39.87
19150;BME280;9707;49.158;8.632;2024-02-15T02:20:26;100834.88;;;20.91;39.69
19150;BME280;9707;49.158;8.632;2024-02-15T02:22:53;100831.28;;;20.91;39.76
19150;BME280;9707;49.158;8.632;2024-02-15T02:25:20;100826.03;;;20.89;39.60
19150;BME280;9707;49.158;8.632;2024-02-15T02:27:46;100825.09;;;20.89;39.97
19150;BME280;9707;49.158;8.632;2024-02-15T02:30:14;100825.31;;;20.86;39.77
19150;BME280;9707;49.158;8.632;2024-02-15T02:32:43;100817.44;;;20.83;39.91
19150;BME280;9707;49.158;8.632;2024-02-15T02:35:08;100816.69;;;20.81;40.10
19150;BME280;9707;49.158;8.632;2024-02-15T02:37:37;100816.69;;;20.81;40.29
19150;BME280;9707;49.158;8.632;2024-02-15T02:40:04;100812.34;;;20.78;40.18
19150;BME280;9707;49.158;8.632;2024-02-15T02:42:29;100811.50;;;20.78;40.11
19150;BME280;9707;49.158;8.632;2024-02-15T02:44:54;100805.22;;;20.77;40.14
19150;BME280;9707;49.158;8.632;2024-02-15T02:47:20;100803.59;;;20.75;40.17
19150;BME280;9707;49.158;8.632;2024-02-15T02:49:45;100799.16;;;20.74;40.20
19150;BME280;9707;49.158;8.632;2024-02-15T02:52:10;100800.16;;;20.73;40.24
19150;BME280;9707;49.158;8.632;2024-02-15T02:54:35;100806.56;;;20.72;40.31
19150;BME280;9707;49.158;8.632;2024-02-15T02:57:01;100791.25;;;20.71;40.32
19150;BME280;9707;49.158;8.632;2024-02-15T02:59:26;100795.94;;;20.69;40.47
19150;BME280;9707;49.158;8.632;2024-02-15T03:01:51;100790.53;;;20.69;40.33
19150;BME280;9707;49.158;8.632;2024-02-15T03:04:21;100788.78;;;20.68;40.50
19150;BME280;9707;49.158;8.632;2024-02-15T03:06:47;100798.75;;;20.67;40.27
19150;BME280;9707;49.158;8.632;2024-02-15T03:09:12;100796.16;;;20.66;40.26
19150;BME280;9707;49.158;8.632;2024-02-15T03:11:39;100795.41;;;20.64;40.28
19150;BME280;9707;49.158;8.632;2024-02-15T03:14:04;100808.94;;;20.64;40.32
19150;BME280;9707;49.158;8.632;2024-02-15T03:16:31;100798.22;;;20.62;40.36
19150;BME280;9707;49.158;8.632;2024-02-15T03:18:56;100794.66;;;20.62;40.47
19150;BME280;9707;49.158;8.632;2024-02-15T03:21:22;100807.31;;;20.61;40.38
19150;BME280;9707;49.158;8.632;2024-02-15T03:23:47;100800.19;;;20.60;40.20
19150;BME280;9707;49.158;8.632;2024-02-15T03:26:12;100804.63;;;20.61;40.48
19150;BME280;9707;49.158;8.632;2024-02-15T03:28:39;100797.38;;;20.62;40.45
19150;BME280;9707;49.158;8.632;2024-02-15T03:31:04;100800.09;;;20.62;40.41
19150;BME280;9707;49.158;8.632;2024-02-15T03:33:30;100808.06;;;20.63;40.49
19150;BME280;9707;49.158;8.632;2024-02-15T03:35:59;100818.06;;;20.63;40.28
19150;BME280;9707;49.158;8.632;2024-02-15T03:38:26;100814.47;;;20.62;40.34
19150;BME280;9707;49.158;8.632;2024-02-15T03:40:52;100810.03;;;20.61;40.20
19150;BME280;9707;49.158;8.632;2024-02-15T03:43:17;100817.16;;;20.62;40.32
19150;BME280;9707;49.158;8.632;2024-02-15T03:45:43;100820.84;;;20.61;40.12
19150;BME280;9707;49.158;8.632;2024-02-15T03:48:09;100827.16;;;20.62;40.46
19150;BME280;9707;49.158;8.632;2024-02-15T03:50:35;100818.16;;;20.61;40.44
19150;BME280;9707;49.158;8.632;2024-02-15T03:53:00;100826.28;;;20.61;40.33
19150;BME280;9707;49.158;8.632;2024-02-15T03:55:25;100828.97;;;20.61;40.22
19150;BME280;9707;49.158;8.632;2024-02-15T03:57:51;100828.09;;;20.61;40.29
19150;BME280;9707;49.158;8.632;2024-02-15T04:00:17;100825.41;;;20.61;40.35
19150;BME280;9707;49.158;8.632;2024-02-15T04:02:46;100821.75;;;20.62;40.36
19150;BME280;9707;49.158;8.632;2024-02-15T04:05:13;100827.16;;;20.62;40.41
19150;BME280;9707;49.158;8.632;2024-02-15T04:07:39;100837.00;;;20.63;40.34
19150;BME280;9707;49.158;8.632;2024-02-15T04:10:05;100821.75;;;20.62;40.39
19150;BME280;9707;49.158;8.632;2024-02-15T04:12:31;100828.88;;;20.63;40.23
19150;BME280;9707;49.158;8.632;2024-02-15T04:14:56;100828.88;;;20.63;40.19
19150;BME280;9707;49.158;8.632;2024-02-15T04:17:29;100823.47;;;20.63;40.49
19150;BME280;9707;49.158;8.632;2024-02-15T04:19:58;100824.31;;;20.63;40.25
19150;BME280;9707;49.158;8.632;2024-02-15T04:22:23;100819.78;;;20.64;40.26
19150;BME280;9707;49.158;8.632;2024-02-15T04:24:49;100821.50;;;20.65;40.14
19150;BME280;9707;49.158;8.632;2024-02-15T04:27:14;100824.09;;;20.66;40.13
19150;BME280;9707;49.158;8.632;2024-02-15T04:29:40;100823.22;;;20.66;40.20
19150;BME280;9707;49.158;8.632;2024-02-15T04:32:09;100824.97;;;20.67;40.25
19150;BME280;9707;49.158;8.632;2024-02-15T04:34:36;100821.50;;;20.65;40.27
19150;BME280;9707;49.158;8.632;2024-02-15T04:37:02;100819.56;;;20.67;40.16
19150;BME280;9707;49.158;8.632;2024-02-15T04:39:35;100819.56;;;20.67;40.37
19150;BME280;9707;49.158;8.632;2024-02-15T04:42:01;100822.25;;;20.67;40.23
19150;BME280;9707;49.158;8.632;2024-02-15T04:44:27;100817.69;;;20.67;40.37
19150;BME280;9707;49.158;8.632;2024-02-15T04:46:53;100815.00;;;20.67;40.06
19150;BME280;9707;49.158;8.632;2024-02-15T04:49:19;100815.88;;;20.68;40.19
19150;BME280;9707;49.158;8.632;2024-02-15T04:51:45;100812.19;;;20.69;40.28
19150;BME280;9707;49.158;8.632;2024-02-15T04:54:10;100817.59;;;20.69;40.28
19150;BME280;9707;49.158;8.632;2024-02-15T04:56:42;100815.75;;;20.69;40.11
19150;BME280;9707;49.158;8.632;2024-02-15T04:59:09;100812.19;;;20.69;40.15
19150;BME280;9707;49.158;8.632;2024-02-15T05:01:36;100809.38;;;20.70;40.33
19150;BME280;9707;49.158;8.632;2024-02-15T05:04:02;100808.47;;;20.70;40.27
19150;BME280;9707;49.158;8.632;2024-02-15T05:06:32;100804.78;;;20.71;40.06
19150;BME280;9707;49.158;8.632;2024-02-15T05:08:58;100797.66;;;20.70;40.14
19150;BME280;9707;49.158;8.632;2024-02-15T05:11:25;100795.72;;;20.72;40.02
19150;BME280;9707;49.158;8.632;2024-02-15T05:13:50;100800.16;;;20.73;40.18
19150;BME280;9707;49.158;8.632;2024-02-15T05:16:16;100790.16;;;20.73;40.20
19150;BME280;9707;49.158;8.632;2024-02-15T05:18:42;100792.78;;;20.75;40.33
19150;BME280;9707;49.158;8.632;2024-02-15T05:21:07;100798.19;;;20.75;40.18
19150;BME280;9707;49.158;8.632;2024-02-15T05:23:35;100793.66;;;20.75;39.99
19150;BME280;9707;49.158;8.632;2024-02-15T05:26:06;100795.38;;;20.76;39.92
19150;BME280;9707;49.158;8.632;2024-02-15T05:28:32;100785.41;;;20.77;40.09
19150;BME280;9707;49.158;8.632;2024-02-15T05:31:19;100788.97;;;20.77;40.19
19150;BME280;9707;49.158;8.632;2024-02-15T05:33:49;100790.84;;;20.77;40.05
19150;BME280;9707;49.158;8.632;2024-02-15T05:36:16;100791.56;;;20.79;40.17
19150;BME280;9707;49.158;8.632;2024-02-15T05:38:42;100786.16;;;20.79;40.10
19150;BME280;9707;49.158;8.632;2024-02-15T05:41:10;100780.75;;;20.79;40.05
19150;BME280;9707;49.158;8.632;2024-02-15T05:43:36;100786.16;;;20.79;39.93
19150;BME280;9707;49.158;8.632;2024-02-15T05:46:03;100798.72;;;20.80;40.01
19150;BME280;9707;49.158;8.632;2024-02-15T05:48:28;100793.28;;;20.80;40.07
19150;BME280;9707;49.158;8.632;2024-02-15T05:50:56;100794.16;;;20.80;39.99
19150;BME280;9707;49.158;8.632;2024-02-15T05:53:23;100801.41;;;20.80;40.05
19150;BME280;9707;49.158;8.632;2024-02-15T05:55:48;100798.72;;;20.80;40.46
19150;BME280;9707;49.158;8.632;2024-02-15T05:58:15;100796.97;;;20.79;40.05
19150;BME280;9707;49.158;8.632;2024-02-15T06:00:40;100799.69;;;20.79;40.23
19150;BME280;9707;49.158;8.632;2024-02-15T06:03:06;100796.97;;;20.79;40.13
19150;BME280;9707;49.158;8.632;2024-02-15T06:05:31;100800.69;;;20.78;40.04
19150;BME280;9707;49.158;8.632;2024-02-15T06:07:57;100794.28;;;20.79;40.40
19150;BME280;9707;49.158;8.632;2024-02-15T06:10:24;100794.28;;;20.79;40.22
19150;BME280;9707;49.158;8.632;2024-02-15T06:12:49;100787.88;;;20.80;40.19
19150;BME280;9707;49.158;8.632;2024-02-15T06:15:14;100797.72;;;20.81;40.16
19150;BME280;9707;49.158;8.632;2024-02-15T06:17:41;100785.16;;;20.80;40.17
19150;BME280;9707;49.158;8.632;2024-02-15T06:20:10;100787.88;;;20.80;39.99
19150;BME280;9707;49.158;8.632;2024-02-15T06:22:37;100786.88;;;20.81;40.17
19150;BME280;9707;49.158;8.632;2024-02-15T06:25:03;100783.34;;;20.80;40.10
19150;BME280;9707;49.158;8.632;2024-02-15T06:27:28;100777.03;;;20.80;40.08
19150;BME280;9707;49.158;8.632;2024-02-15T06:29:53;100780.75;;;20.79;40.00
19150;BME280;9707;49.158;8.632;2024-02-15T06:32:37;100778.25;;;20.76;40.11
19150;BME280;9707;49.158;8.632;2024-02-15T06:35:21;100772.97;;;20.74;40.18
19150;BME280;9707;49.158;8.632;2024-02-15T06:38:05;100774.81;;;20.74;40.28
19150;BME280;9707;49.158;8.632;2024-02-15T06:40:49;100777.50;;;20.74;40.18
19150;BME280;9707;49.158;8.632;2024-02-15T06:43:14;100780.22;;;20.74;40.09
19150;BME280;9707;49.158;8.632;2024-02-15T06:45:41;100777.50;;;20.74;40.01
19150;BME280;9707;49.158;8.632;2024-02-15T06:48:11;100773.81;;;20.75;40.10
19150;BME280;9707;49.158;8.632;2024-02-15T06:50:37;100771.09;;;20.75;40.07
19150;BME280;9707;49.158;8.632;2024-02-15T06:53:03;100772.81;;;20.76;40.14
19150;BME280;9707;49.158;8.632;2024-02-15T06:55:28;100763.75;;;20.77;40.00
19150;BME280;9707;49.158;8.632;2024-02-15T06:57:53;100771.88;;;20.77;40.10
19150;BME280;9707;49.158;8.632;2024-02-15T07:00:20;100772.81;;;20.76;40.11
19150;BME280;9707;49.158;8.632;2024-02-15T07:02:45;100767.31;;;20.77;40.11
19150;BME280;9707;49.158;8.632;2024-02-15T07:05:12;100770.00;;;20.77;40.17
19150;BME280;9707;49.158;8.632;2024-02-15T07:07:38;100763.88;;;20.75;40.10
19150;BME280;9707;49.158;8.632;2024-02-15T07:10:05;100765.69;;;20.75;39.94
19150;BME280;9707;49.158;8.632;2024-02-15T07:12:31;100771.00;;;20.76;39.95
19150;BME280;9707;49.158;8.632;2024-02-15T07:14:57;100766.69;;;20.74;40.23
19150;BME280;9707;49.158;8.632;2024-02-15T07:17:23;100763.88;;;20.75;40.06
19150;BME280;9707;49.158;8.632;2024-02-15T07:19:48;100759.53;;;20.73;39.93
19150;BME280;9707;49.158;8.632;2024-02-15T07:22:15;100753.34;;;20.71;39.92
19150;BME280;9707;49.158;8.632;2024-02-15T07:24:40;100743.28;;;20.73;40.11
19150;BME280;9707;49.158;8.632;2024-02-15T07:27:05;100741.69;;;20.70;40.08
19150;BME280;9707;49.158;8.632;2024-02-15T07:29:31;100740.69;;;20.71;40.08
19150;BME280;9707;49.158;8.632;2024-02-15T07:32:06;100730.75;;;20.72;40.18
19150;BME280;9707;49.158;8.632;2024-02-15T07:34:32;100737.00;;;20.72;40.04
19150;BME280;9707;49.158;8.632;2024-02-15T07:36:58;100736.03;;;20.73;39.96
19150;BME280;9707;49.158;8.632;2024-02-15T07:39:23;100729.75;;;20.73;40.27
19150;BME280;9707;49.158;8.632;2024-02-15T07:41:52;100734.19;;;20.74;40.40
19150;BME280;9707;49.158;8.632;2024-02-15T07:44:17;100728.66;;;20.75;40.19
19150;BME280;9707;49.158;8.632;2024-02-15T07:46:43;100728.56;;;20.77;40.35
19150;BME280;9707;49.158;8.632;2024-02-15T07:49:09;100732.00;;;20.79;39.84
19150;BME280;9707;49.158;8.632;2024-02-15T07:51:34;100733.72;;;20.80;39.75
19150;BME280;9707;49.158;8.632;2024-02-15T07:53:59;100742.84;;;20.79;39.95
19150;BME280;9707;49.158;8.632;2024-02-15T07:56:26;100743.72;;;20.79;39.80
19150;BME280;9707;49.158;8.632;2024-02-15T07:58:52;100740.00;;;20.80;40.15
19150;BME280;9707;49.158;8.632;2024-02-15T08:01:17;100735.59;;;20.79;39.38
19150;BME280;9707;49.158;8.632;2024-02-15T08:03:44;100747.25;;;20.80;39.45
19150;BME280;9707;49.158;8.632;2024-02-15T08:06:15;100741.09;;;20.78;39.14
19150;BME280;9707;49.158;8.632;2024-02-15T08:08:44;100743.03;;;20.76;39.42
19150;BME280;9707;49.158;8.632;2024-02-15T08:11:16;100740.34;;;20.76;39.55
19150;BME280;9707;49.158;8.632;2024-02-15T08:13:50;100739.59;;;20.74;39.51
19150;BME280;9707;49.158;8.632;2024-02-15T08:16:16;100744.13;;;20.73;39.92
19150;BME280;9707;49.158;8.632;2024-02-15T08:18:45;100750.44;;;20.74;39.76
19150;BME280;9707;49.158;8.632;2024-02-15T08:21:11;100745.91;;;20.74;39.70
19150;BME280;9707;49.158;8.632;2024-02-15T08:23:37;100740.59;;;20.73;39.68
19150;BME280;9707;49.158;8.632;2024-02-15T08:26:02;100746.00;;;20.73;39.78
19150;BME280;9707;49.158;8.632;2024-02-15T08:28:28;100734.28;;;20.72;39.77
19150;BME280;9707;49.158;8.632;2024-02-15T08:30:54;100742.22;;;20.75;39.88
19150;BME280;9707;49.158;8.632;2024-02-15T08:33:21;100737.78;;;20.74;39.64
19150;BME280;9707;49.158;8.632;2024-02-15T08:35:46;100745.03;;;20.74;39.74
19150;BME280;9707;49.158;8.632;2024-02-15T08:38:11;100745.03;;;20.74;39.80
19150;BME280;9707;49.158;8.632;2024-02-15T08:40:36;100741.31;;;20.75;39.65
19150;BME280;9707;49.158;8.632;2024-02-15T08:43:02;100735.91;;;20.75;39.61
19150;BME280;9707;49.158;8.632;2024-02-15T08:45:27;100734.19;;;20.74;39.67
19150;BME280;9707;49.158;8.632;2024-02-15T08:47:53;100738.72;;;20.73;39.60
19150;BME280;9707;49.158;8.632;2024-02-15T08:50:19;100736.91;;;20.74;39.73
19150;BME280;9707;49.158;8.632;2024-02-15T08:52:46;100735.06;;;20.74;39.80
19150;BME280;9707;49.158;8.632;2024-02-15T08:55:12;100732.34;;;20.74;39.67
19150;BME280;9707;49.158;8.632;2024-02-15T08:57:40;100740.47;;;20.74;39.93
19150;BME280;9707;49.158;8.632;2024-02-15T09:00:07;100736.78;;;20.75;39.72
19150;BME280;9707;49.158;8.632;2024-02-15T09:02:45;100733.19;;;20.75;40.08
19150;BME280;9707;49.158;8.632;2024-02-15T09:05:11;100738.50;;;20.76;39.62
19150;BME280;9707;49.158;8.632;2024-02-15T09:07:44;100743.81;;;20.78;39.50
19150;BME280;9707;49.158;8.632;2024-02-15T09:10:13;100737.53;;;20.77;39.33
19150;BME280;9707;49.158;8.632;2024-02-15T09:12:40;100736.53;;;20.78;39.43
19150;BME280;9707;49.158;8.632;2024-02-15T09:15:06;100733.84;;;20.78;39.47
19150;BME280;9707;49.158;8.632;2024-02-15T09:17:32;100732.00;;;20.79;39.57
19150;BME280;9707;49.158;8.632;2024-02-15T09:20:03;100726.59;;;20.79;39.28
19150;BME280;9707;49.158;8.632;2024-02-15T09:22:29;100719.34;;;20.79;39.33
19150;BME280;9707;49.158;8.632;2024-02-15T09:24:54;100715.75;;;20.79;39.15
19150;BME280;9707;49.158;8.632;2024-02-15T09:27:19;100702.94;;;20.81;39.19
19150;BME280;9707;49.158;8.632;2024-02-15T09:29:46;100705.56;;;20.82;39.03
19150;BME280;9707;49.158;8.632;2024-02-15T09:32:11;100711.72;;;20.84;39.01
19150;BME280;9707;49.158;8.632;2024-02-15T09:34:37;100702.72;;;20.84;39.16
19150;BME280;9707;49.158;8.632;2024-02-15T09:37:02;100704.47;;;20.85;39.09
19150;BME280;9707;49.158;8.632;2024-02-15T09:39:27;100707.94;;;20.87;39.00
19150;BME280;9707;49.158;8.632;2024-02-15T09:41:53;100696.22;;;20.86;39.12
19150;BME280;9707;49.158;8.632;2024-02-15T09:44:24;100691.69;;;20.87;39.19
19150;BME280;9707;49.158;8.632;2024-02-15T09:47:03;100700.53;;;20.89;39.39
19150;BME280;9707;49.158;8.632;2024-02-15T09:49:37;100694.94;;;20.92;39.17
19150;BME280;9707;49.158;8.632;2024-02-15T09:52:06;100687.53;;;20.94;39.28
19150;BME280;9707;49.158;8.632;2024-02-15T09:54:39;100687.44;;;20.95;39.43
19150;BME280;9707;49.158;8.632;2024-02-15T09:57:05;100681.03;;;20.96;39.60
19150;BME280;9707;49.158;8.632;2024-02-15T09:59:30;100672.78;;;20.98;39.39
19150;BME280;9707;49.158;8.632;2024-02-15T10:01:58;100678.84;;;21.01;39.35
19150;BME280;9707;49.158;8.632;2024-02-15T10:04:24;100671.69;;;21.00;39.29
19150;BME280;9707;49.158;8.632;2024-02-15T10:06:50;100667.88;;;21.03;39.07
19150;BME280;9707;49.158;8.632;2024-02-15T10:09:29;100666.03;;;21.03;39.03
19150;BME280;9707;49.158;8.632;2024-02-15T10:11:56;100664.09;;;21.05;38.97
19150;BME280;9707;49.158;8.632;2024-02-15T10:14:24;100663.19;;;21.05;38.94
19150;BME280;9707;49.158;8.632;2024-02-15T10:16:55;100659.50;;;21.06;39.00
19150;BME280;9707;49.158;8.632;2024-02-15T10:19:21;100652.97;;;21.08;39.13
19150;BME280;9707;49.158;8.632;2024-02-15T10:21:52;100650.16;;;21.10;39.21
19150;BME280;9707;49.158;8.632;2024-02-15T10:24:20;100640.09;;;21.12;39.29
19150;BME280;9707;49.158;8.632;2024-02-15T10:26:48;100647.13;;;21.14;39.22
19150;BME280;9707;49.158;8.632;2024-02-15T10:29:13;100642.44;;;21.16;38.96
19150;BME280;9707;49.158;8.632;2024-02-15T10:31:53;100636.13;;;21.16;39.19
19150;BME280;9707;49.158;8.632;2024-02-15T10:34:18;100637.75;;;21.18;39.12
19150;BME280;9707;49.158;8.632;2024-02-15T10:36:45;100635.66;;;21.22;38.73
19150;BME280;9707;49.158;8.632;2024-02-15T10:39:19;100629.88;;;21.26;38.82
19150;BME280;9707;49.158;8.632;2024-02-15T10:41:49;100629.63;;;21.29;38.59
19150;BME280;9707;49.158;8.632;2024-02-15T10:44:19;100631.13;;;21.33;38.42
19150;BME280;9707;49.158;8.632;2024-02-15T10:46:46;100623.88;;;21.34;38.07
19150;BME280;9707;49.158;8.632;2024-02-15T10:49:15;100627.19;;;21.37;37.96
19150;BME280;9707;49.158;8.632;2024-02-15T10:51:43;100629.53;;;21.42;37.80
19150;BME280;9707;49.158;8.632;2024-02-15T10:54:12;100623.97;;;21.43;37.57
19150;BME280;9707;49.158;8.632;2024-02-15T10:56:42;100629.28;;;21.45;37.63
19150;BME280;9707;49.158;8.632;2024-02-15T10:59:19;100613.91;;;21.45;37.50
19150;BME280;9707;49.158;8.632;2024-02-15T11:01:46;100619.06;;;21.48;37.79
19150;BME280;9707;49.158;8.632;2024-02-15T11:04:17;100613.53;;;21.50;37.63
19150;BME280;9707;49.158;8.632;2024-02-15T11:06:47;100618.56;;;21.54;37.26
19150;BME280;9707;49.158;8.632;2024-02-15T11:09:16;100610.31;;;21.56;37.88
19150;BME280;9707;49.158;8.632;2024-02-15T11:11:41;100613.78;;;21.58;37.73
19150;BME280;9707;49.158;8.632;2024-02-15T11:14:27;100600.84;;;21.61;37.71
19150;BME280;9707;49.158;8.632;2024-02-15T11:16:54;100592.44;;;21.64;38.09
19150;BME280;9707;49.158;8.632;2024-02-15T11:22:09;100589.41;;;21.69;37.45
19150;BME280;9707;49.158;8.632;2024-02-15T11:24:36;100590.25;;;21.69;37.18
19150;BME280;9707;49.158;8.632;2024-02-15T11:27:03;100587.41;;;21.71;37.24
19150;BME280;9707;49.158;8.632;2024-02-15T11:32:40;100594.31;;;21.75;37.12
19150;BME280;9707;49.158;8.632;2024-02-15T11:35:16;100594.31;;;21.75;37.96
19150;BME280;9707;49.158;8.632;2024-02-15T11:40:12;100577.53;;;21.81;37.07
19150;BME280;9707;49.158;8.632;2024-02-15T11:42:38;100585.69;;;21.81;36.88
19150;BME280;9707;49.158;8.632;2024-02-15T11:45:07;100583.84;;;21.81;36.72
19150;BME280;9707;49.158;8.632;2024-02-15T11:47:39;100571.00;;;21.83;36.36
19150;BME280;9707;49.158;8.632;2024-02-15T11:50:09;100564.75;;;21.83;36.54
19150;BME280;9707;49.158;8.632;2024-02-15T11:52:46;100563.47;;;21.87;37.19
19150;BME280;9707;49.158;8.632;2024-02-15T11:55:14;100565.94;;;21.90;36.42
19150;BME280;9707;49.158;8.632;2024-02-15T11:57:44;100561.41;;;21.90;36.20
19150;BME280;9707;49.158;8.632;2024-02-15T12:00:25;100562.13;;;21.92;36.72
19150;BME280;9707;49.158;8.632;2024-02-15T12:03:10;100550.41;;;21.92;36.26
19150;BME280;9707;49.158;8.632;2024-02-15T12:05:54;100554.84;;;21.93;36.16
19150;BME280;9707;49.158;8.632;2024-02-15T12:08:39;100546.72;;;21.93;36.08
19150;BME280;9707;49.158;8.632;2024-02-15T12:11:23;100539.44;;;21.93;36.14
19150;BME280;9707;49.158;8.632;2024-02-15T12:14:07;100539.31;;;21.95;36.91
19150;BME280;9707;49.158;8.632;2024-02-15T12:17:04;100529.19;;;21.97;36.51
19150;BME280;9707;49.158;8.632;2024-02-15T12:19:50;100523.75;;;21.97;36.25
19150;BME280;9707;49.158;8.632;2024-02-15T12:22:25;100518.09;;;22.00;36.84
19150;BME280;9707;49.158;8.632;2024-02-15T12:24:55;100513.13;;;22.05;36.44
19150;BME280;9707;49.158;8.632;2024-02-15T12:27:21;100518.28;;;22.08;36.54
19150;BME280;9707;49.158;8.632;2024-02-15T12:32:26;100503.47;;;22.12;36.76
19150;BME280;9707;49.158;8.632;2024-02-15T12:34:53;100497.94;;;22.13;36.76
19150;BME280;9707;49.158;8.632;2024-02-15T12:37:20;100490.38;;;22.17;36.92
19150;BME280;9707;49.158;8.632;2024-02-15T12:39:47;100489.25;;;22.19;36.38
19150;BME280;9707;49.158;8.632;2024-02-15T12:42:13;100483.72;;;22.21;36.89
19150;BME280;9707;49.158;8.632;2024-02-15T12:44:43;100486.31;;;22.22;36.70
19150;BME280;9707;49.158;8.632;2024-02-15T12:47:17;100482.47;;;22.25;36.61
19150;BME280;9707;49.158;8.632;2024-02-15T12:49:43;100479.75;;;22.25;36.33
19150;BME280;9707;49.158;8.632;2024-02-15T12:52:34;100476.03;;;22.26;36.31
19150;BME280;9707;49.158;8.632;2024-02-15T12:55:11;100480.59;;;22.25;36.47
19150;BME280;9707;49.158;8.632;2024-02-15T12:57:37;100476.91;;;22.26;35.92
19150;BME280;9707;49.158;8.632;2024-02-15T13:00:06;100478.63;;;22.27;36.70
19150;BME280;9707;49.158;8.632;2024-02-15T13:02:39;100482.94;;;22.30;36.64
19150;BME280;9707;49.158;8.632;2024-02-15T13:05:05;100469.09;;;22.33;36.47
19150;BME280;9707;49.158;8.632;2024-02-15T13:07:33;100469.84;;;22.35;36.50
19150;BME280;9707;49.158;8.632;2024-02-15T13:09:59;100463.28;;;22.37;36.73
19150;BME280;9707;49.158;8.632;2024-02-15T13:12:25;100455.97;;;22.38;36.53
19150;BME280;9707;49.158;8.632;2024-02-15T13:14:50;100455.72;;;22.41;36.41